Time;durP1;ratioP1;P1;durP2;ratioP2;P2;SDS_P1;SDS_P2;PMS_P1;PMS_P2;Temp;Humidity;BMP_temperature;BMP_pressure;BME280_temperature;BME280_humidity;BME280_pressure;Samples;Min_cycle;Max_cycle;Signal;HPM_P1;HPM_P2
2021/09/18 00:01:42;;;;;;;58.67;2.77;;;11.60;15.10;;;;;;5010660;28;20477;-70
2021/09/18 00:04:09;;;;;;;58.27;2.70;;;11.60;14.40;;;;;;5011433;28;20577;-70
2021/09/18 00:06:36;;;;;;;59.20;3.30;;;11.60;17.10;;;;;;5011070;28;21065;-70
2021/09/18 00:09:03;;;;;;;59.43;3.70;;;11.60;15.50;;;;;;5012122;28;20536;-70
2021/09/18 00:11:32;;;;;;;58.57;3.00;;;11.60;15.50;;;;;;5012038;28;21009;-70
2021/09/18 00:13:59;;;;;;;58.73;3.43;;;11.60;13.20;;;;;;5011997;28;20477;-70
2021/09/18 00:16:26;;;;;;;58.77;3.00;;;11.50;13.70;;;;;;5011385;28;20974;-70
2021/09/18 00:18:53;;;;;;;59.17;4.00;;;11.50;9.30;;;;;;5012069;28;20885;-70
2021/09/18 00:21:20;;;;;;;58.57;2.90;;;11.50;9.00;;;;;;5011385;28;20833;-70
2021/09/18 00:23:47;;;;;;;58.60;2.80;;;11.40;10.90;;;;;;5011246;28;20489;-70
2021/09/18 00:26:14;;;;;;;58.77;2.80;;;11.40;13.40;;;;;;5011428;28;20545;-70
2021/09/18 00:28:42;;;;;;;58.87;3.30;;;11.30;12.40;;;;;;5011530;28;20544;-70
2021/09/18 00:31:09;;;;;;;58.70;3.10;;;11.30;12.20;;;;;;5011548;28;20485;-70
2021/09/18 00:33:36;;;;;;;58.70;2.70;;;11.30;12.50;;;;;;5014467;28;20489;-70
2021/09/18 00:36:03;;;;;;;58.70;2.70;;;11.30;12.60;;;;;;5015662;28;20488;-70
2021/09/18 00:38:30;;;;;;;58.47;2.77;;;11.20;12.60;;;;;;5015494;28;20456;-70
2021/09/18 00:40:58;;;;;;;58.77;2.70;;;11.20;14.20;;;;;;5015908;28;20540;-70
2021/09/18 00:43:24;;;;;;;58.47;2.63;;;11.20;13.40;;;;;;5014954;28;20572;-70
2021/09/18 00:45:53;;;;;;;58.63;3.00;;;11.10;11.90;;;;;;5015121;28;20450;-70
2021/09/18 00:48:20;;;;;;;58.67;2.80;;;11.10;15.20;;;;;;5014969;28;20552;-70
2021/09/18 00:50:46;;;;;;;58.67;2.70;;;11.10;13.80;;;;;;5016062;28;20464;-70
2021/09/18 00:53:14;;;;;;;58.77;3.00;;;11.10;16.80;;;;;;5015420;28;20537;-70
2021/09/18 00:55:42;;;;;;;58.47;2.70;;;11.10;14.30;;;;;;5015234;28;20536;-70
2021/09/18 00:58:10;;;;;;;58.40;2.93;;;11.10;16.60;;;;;;5014865;28;20501;-70
2021/09/18 01:00:38;;;;;;;58.60;2.70;;;11.10;14.90;;;;;;5015394;28;20537;-70
2021/09/18 01:03:06;;;;;;;58.47;2.90;;;11.00;14.60;;;;;;5014704;28;20487;-71
2021/09/18 01:05:33;;;;;;;58.60;3.30;;;11.10;16.70;;;;;;5027399;28;20995;-70
2021/09/18 01:08:00;;;;;;;58.60;2.80;;;11.00;16.60;;;;;;5034925;28;20551;-71
2021/09/18 01:10:28;;;;;;;58.53;2.80;;;11.00;18.30;;;;;;5032598;28;20535;-71
2021/09/18 01:13:03;;;;;;;58.47;3.03;;;11.00;16.40;;;;;;5034917;28;20459;-71
2021/09/18 01:15:31;;;;;;;58.57;3.00;;;11.00;16.00;;;;;;5034647;28;20479;-71
2021/09/18 01:17:58;;;;;;;58.57;2.73;;;11.00;18.90;;;;;;5034425;28;20475;-71
2021/09/18 01:20:28;;;;;;;59.20;3.47;;;11.00;17.50;;;;;;5034643;28;21029;-71
2021/09/18 01:22:57;;;;;;;58.47;2.73;;;11.00;16.80;;;;;;5034270;28;20993;-71
2021/09/18 01:25:25;;;;;;;58.57;2.70;;;11.00;20.00;;;;;;5033909;28;20457;-70
2021/09/18 01:27:52;;;;;;;58.67;2.90;;;10.90;19.20;;;;;;5034031;28;20554;-70
2021/09/18 01:30:20;;;;;;;58.57;2.70;;;10.90;20.00;;;;;;5034342;28;20461;-70
2021/09/18 01:32:47;;;;;;;58.67;3.00;;;10.90;20.50;;;;;;5034610;28;20453;-70
2021/09/18 01:35:14;;;;;;;58.67;2.67;;;10.90;20.20;;;;;;5034279;28;20476;-70
2021/09/18 01:37:41;;;;;;;58.63;3.00;;;10.90;20.80;;;;;;5014946;28;21146;-70
2021/09/18 01:40:10;;;;;;;58.53;2.70;;;10.90;20.20;;;;;;5014782;28;20449;-70
2021/09/18 01:42:44;;;;;;;58.57;2.90;;;10.90;20.40;;;;;;5014780;28;20445;-70
2021/09/18 01:45:12;;;;;;;58.37;2.90;;;10.80;22.30;;;;;;5013598;28;20811;-70
2021/09/18 01:47:43;;;;;;;58.57;2.77;;;10.80;23.80;;;;;;5013890;28;20477;-70
2021/09/18 01:50:25;;;;;;;58.47;2.80;;;10.80;23.90;;;;;;5014286;28;20454;-70
2021/09/18 01:52:53;;;;;;;58.20;2.70;;;10.80;25.10;;;;;;5014718;28;20449;-70
2021/09/18 01:55:20;;;;;;;58.30;2.60;;;10.80;28.10;;;;;;5014443;28;20448;-70
2021/09/18 01:57:50;;;;;;;58.47;2.93;;;10.80;29.00;;;;;;5014528;28;20556;-70
2021/09/18 02:00:18;;;;;;;58.90;2.90;;;10.80;30.80;;;;;;5014156;28;20912;-70
2021/09/18 02:02:46;;;;;;;58.43;2.67;;;10.80;29.40;;;;;;5013746;28;20450;-70
2021/09/18 02:05:15;;;;;;;58.70;3.20;;;10.80;28.90;;;;;;5013707;28;20525;-70
2021/09/18 02:07:42;;;;;;;58.47;2.87;;;10.80;30.00;;;;;;5012434;28;20552;-70
2021/09/18 02:10:12;;;;;;;58.27;2.70;;;10.80;29.70;;;;;;5013741;28;20532;-70
2021/09/18 02:12:39;;;;;;;58.40;2.80;;;10.80;27.70;;;;;;5014365;28;20532;-70
2021/09/18 02:15:09;;;;;;;58.37;2.80;;;10.80;24.90;;;;;;5013961;28;20537;-70
2021/09/18 02:17:37;;;;;;;58.27;2.80;;;10.70;24.90;;;;;;5013827;28;20502;-70
2021/09/18 02:20:04;;;;;;;58.47;2.67;;;10.70;27.90;;;;;;5014090;28;20458;-70
2021/09/18 02:22:31;;;;;;;58.33;2.90;;;10.70;26.90;;;;;;5014205;28;20788;-70
2021/09/18 02:24:58;;;;;;;58.37;2.83;;;10.60;26.80;;;;;;5014155;28;20572;-70
2021/09/18 02:27:25;;;;;;;58.47;2.77;;;10.60;27.40;;;;;;5013556;28;20501;-70
2021/09/18 02:29:52;;;;;;;61.17;3.97;;;10.60;27.60;;;;;;5013757;28;20544;-70
2021/09/18 02:32:20;;;;;;;58.47;2.80;;;10.60;26.80;;;;;;5013952;28;20532;-70
2021/09/18 02:34:47;;;;;;;58.50;3.00;;;10.50;26.10;;;;;;5014386;28;20492;-70
2021/09/18 02:37:14;;;;;;;58.60;2.80;;;10.50;25.90;;;;;;5013986;28;20564;-70
2021/09/18 02:39:41;;;;;;;58.57;2.90;;;10.50;25.70;;;;;;5014521;28;20537;-70
2021/09/18 02:42:09;;;;;;;58.50;2.80;;;10.50;25.10;;;;;;5014134;28;20460;-70
2021/09/18 02:44:36;;;;;;;58.77;3.17;;;10.50;25.10;;;;;;5013749;28;20572;-70
2021/09/18 02:47:03;;;;;;;59.10;3.30;;;10.40;26.00;;;;;;5013912;28;20923;-70
2021/09/18 02:49:31;;;;;;;58.63;2.80;;;10.40;26.50;;;;;;5014439;28;20971;-70
2021/09/18 02:51:58;;;;;;;58.37;2.80;;;10.40;29.60;;;;;;5014287;28;20454;-70
2021/09/18 02:54:25;;;;;;;58.87;2.93;;;10.40;29.00;;;;;;5014057;28;20442;-70
2021/09/18 02:56:51;;;;;;;58.53;2.70;;;10.40;29.30;;;;;;5013469;28;20511;-70
2021/09/18 02:59:18;;;;;;;58.70;2.90;;;10.40;29.60;;;;;;5018390;28;20452;-70
2021/09/18 03:01:45;;;;;;;58.63;3.00;;;10.40;29.50;;;;;;5018818;28;20521;-70
2021/09/18 03:04:12;;;;;;;58.57;2.70;;;10.40;29.90;;;;;;5018901;28;20562;-70
2021/09/18 03:06:40;;;;;;;58.57;2.60;;;10.30;29.90;;;;;;5018533;28;20648;-70
2021/09/18 03:09:07;;;;;;;58.57;2.90;;;10.30;33.40;;;;;;5019295;28;20477;-70
2021/09/18 03:11:34;;;;;;;59.00;3.53;;;10.30;37.40;;;;;;5018689;28;20483;-70
2021/09/18 03:14:01;;;;;;;58.40;3.00;;;10.30;38.40;;;;;;5019362;28;21025;-70
2021/09/18 03:16:27;;;;;;;58.67;2.73;;;10.30;39.30;;;;;;5018865;28;20505;-70
2021/09/18 03:18:55;;;;;;;58.37;2.70;;;10.30;39.20;;;;;;5016993;28;20492;-70
2021/09/18 03:21:22;;;;;;;58.73;3.10;;;10.30;39.00;;;;;;5012926;28;20473;-70
2021/09/18 03:23:50;;;;;;;58.50;2.80;;;10.30;39.20;;;;;;5012847;28;20937;-70
2021/09/18 03:26:17;;;;;;;58.70;3.20;;;10.30;41.10;;;;;;5012432;28;20967;-70
2021/09/18 03:28:44;;;;;;;58.47;2.80;;;10.30;42.60;;;;;;5012558;28;20505;-70
2021/09/18 03:31:11;;;;;;;58.47;3.10;;;10.30;43.00;;;;;;5012861;28;20532;-70
2021/09/18 03:33:39;;;;;;;58.43;2.87;;;10.30;42.60;;;;;;5012819;28;20890;-70
2021/09/18 03:36:06;;;;;;;58.57;3.23;;;10.30;43.80;;;;;;5012049;28;20550;-70
2021/09/18 03:38:33;;;;;;;58.47;3.20;;;10.30;42.50;;;;;;5012428;28;20448;-70
2021/09/18 03:41:01;;;;;;;58.70;2.87;;;10.30;42.20;;;;;;5012793;28;20876;-70
2021/09/18 03:43:28;;;;;;;58.57;2.73;;;10.30;40.50;;;;;;5012504;28;20487;-70
2021/09/18 03:45:54;;;;;;;58.37;2.80;;;10.30;39.90;;;;;;5012197;28;20993;-70
2021/09/18 03:48:22;;;;;;;58.70;2.67;;;10.30;39.00;;;;;;5012342;28;20466;-70
2021/09/18 03:50:49;;;;;;;58.47;2.53;;;10.20;38.50;;;;;;5012556;28;21021;-70
2021/09/18 03:53:16;;;;;;;58.90;3.07;;;10.20;33.20;;;;;;5012198;28;20513;-70
2021/09/18 03:55:43;;;;;;;58.60;2.87;;;10.20;34.80;;;;;;5012188;28;20537;-70
2021/09/18 03:58:11;;;;;;;58.43;2.77;;;10.20;34.40;;;;;;5012115;28;20564;-69
2021/09/18 04:00:38;;;;;;;58.60;3.00;;;10.10;34.50;;;;;;5012492;28;20528;-69
2021/09/18 04:03:05;;;;;;;58.37;2.77;;;10.10;29.00;;;;;;5012166;28;20442;-70
2021/09/18 04:05:32;;;;;;;58.57;3.00;;;10.00;29.70;;;;;;5011875;28;20592;-69
2021/09/18 04:07:58;;;;;;;58.67;3.00;;;10.00;30.70;;;;;;5011730;28;20476;-69
2021/09/18 04:10:25;;;;;;;58.27;2.70;;;10.00;32.30;;;;;;5012437;28;20817;-69
2021/09/18 04:12:52;;;;;;;58.50;2.90;;;10.00;32.90;;;;;;5012126;28;20540;-69
2021/09/18 04:15:20;;;;;;;58.47;2.90;;;9.90;34.80;;;;;;5012279;28;20450;-69
2021/09/18 04:17:47;;;;;;;58.40;3.00;;;9.90;33.80;;;;;;5012016;28;20477;-70
2021/09/18 04:20:14;;;;;;;58.60;2.90;;;9.90;33.90;;;;;;5011847;28;20540;-70
2021/09/18 04:22:41;;;;;;;58.37;2.70;;;9.90;33.10;;;;;;5012134;28;20463;-70
2021/09/18 04:25:09;;;;;;;58.37;2.90;;;9.90;35.40;;;;;;5012123;28;20584;-70
2021/09/18 04:27:36;;;;;;;58.67;2.80;;;9.90;37.00;;;;;;5011831;28;20480;-70
2021/09/18 04:30:04;;;;;;;58.47;2.80;;;9.90;38.80;;;;;;5011836;28;20469;-70
2021/09/18 04:32:32;;;;;;;58.23;2.70;;;9.80;37.40;;;;;;5011958;28;20489;-70
2021/09/18 04:34:59;;;;;;;59.00;3.13;;;9.80;38.70;;;;;;5012091;28;20453;-70
2021/09/18 04:37:26;;;;;;;58.53;2.80;;;9.80;40.50;;;;;;5011425;28;20563;-70
2021/09/18 04:39:53;;;;;;;58.20;2.90;;;9.80;44.40;;;;;;5012092;28;20444;-70
2021/09/18 04:42:19;;;;;;;58.50;3.10;;;9.80;46.50;;;;;;5012050;28;20532;-70
2021/09/18 04:44:46;;;;;;;58.67;2.80;;;9.70;48.80;;;;;;5011983;28;20516;-70
2021/09/18 04:47:13;;;;;;;58.97;4.17;;;9.70;49.80;;;;;;5011601;28;20555;-70
2021/09/18 04:49:41;;;;;;;58.27;2.90;;;9.60;52.10;;;;;;5011825;28;20949;-70
2021/09/18 04:52:08;;;;;;;58.57;2.67;;;9.60;54.30;;;;;;5012014;28;20453;-70
2021/09/18 04:54:35;;;;;;;58.90;2.70;;;9.60;56.50;;;;;;5011868;28;20535;-70
2021/09/18 04:57:02;;;;;;;58.33;2.80;;;9.50;59.30;;;;;;5011331;28;20498;-70
2021/09/18 04:59:29;;;;;;;58.57;2.80;;;9.50;62.60;;;;;;5011821;28;20448;-70
2021/09/18 05:01:55;;;;;;;58.37;2.80;;;9.50;61.30;;;;;;5011869;28;20548;-70
2021/09/18 05:04:22;;;;;;;58.47;2.90;;;9.50;62.70;;;;;;5011692;28;20580;-70
2021/09/18 05:06:50;;;;;;;58.47;2.87;;;9.50;64.60;;;;;;5011375;28;20555;-70
2021/09/18 05:09:17;;;;;;;58.37;2.90;;;9.50;65.30;;;;;;5011965;28;20541;-70
2021/09/18 05:11:44;;;;;;;58.60;3.10;;;9.50;67.40;;;;;;5012015;28;20536;-70
2021/09/18 05:14:11;;;;;;;58.43;3.13;;;9.50;68.70;;;;;;5011521;28;20540;-70
2021/09/18 05:16:38;;;;;;;58.33;2.80;;;9.50;70.40;;;;;;5011071;28;20567;-71
2021/09/18 05:19:05;;;;;;;58.70;2.83;;;9.50;71.40;;;;;;5013202;28;20503;-70
2021/09/18 05:21:31;;;;;;;58.67;3.00;;;9.50;73.20;;;;;;5015132;28;20481;-70
2021/09/18 05:24:00;;;;;;;58.77;3.07;;;9.50;75.10;;;;;;5015142;28;20543;-70
2021/09/18 05:26:27;;;;;;;58.57;2.70;;;9.60;76.60;;;;;;5014929;28;20465;-70
2021/09/18 05:28:54;;;;;;;58.47;2.80;;;9.60;78.60;;;;;;5015088;28;20464;-70
2021/09/18 05:31:21;;;;;;;58.87;3.10;;;9.60;78.30;;;;;;5015054;28;20536;-70
2021/09/18 05:33:48;;;;;;;58.57;3.10;;;9.60;78.90;;;;;;5014705;28;20973;-70
2021/09/18 05:36:15;;;;;;;58.27;2.67;;;9.70;80.60;;;;;;5014793;28;20545;-70
2021/09/18 05:38:42;;;;;;;58.37;2.80;;;9.70;80.80;;;;;;5014855;28;20484;-70
2021/09/18 05:41:10;;;;;;;58.57;3.13;;;9.70;81.20;;;;;;5014733;28;20457;-70
2021/09/18 05:43:37;;;;;;;58.60;2.80;;;9.70;83.00;;;;;;5014870;28;20452;-70
2021/09/18 05:46:04;;;;;;;58.57;3.03;;;9.70;84.90;;;;;;5014387;28;20568;-70
2021/09/18 05:48:31;;;;;;;58.53;2.80;;;9.80;86.50;;;;;;5014675;28;20456;-70
2021/09/18 05:50:57;;;;;;;58.37;2.80;;;9.80;86.40;;;;;;5014445;28;20532;-70
2021/09/18 05:53:24;;;;;;;58.37;2.80;;;9.90;87.40;;;;;;5014676;28;20535;-70
2021/09/18 05:55:51;;;;;;;58.50;3.27;;;9.90;88.70;;;;;;5014183;28;20540;-70
2021/09/18 05:58:19;;;;;;;58.43;3.03;;;9.90;89.80;;;;;;5014216;28;20519;-71
2021/09/18 06:00:46;;;;;;;58.63;2.90;;;9.90;90.70;;;;;;5014549;28;20453;-70
2021/09/18 06:03:13;;;;;;;58.27;2.80;;;9.90;90.50;;;;;;5014501;28;20884;-70
2021/09/18 06:05:40;;;;;;;58.97;3.17;;;9.90;90.40;;;;;;5013758;28;20579;-70
2021/09/18 06:08:06;;;;;;;58.47;2.90;;;9.90;90.30;;;;;;5014036;28;20548;-70
2021/09/18 06:10:33;;;;;;;58.57;3.00;;;10.00;90.20;;;;;;5014171;28;20541;-70
2021/09/18 06:13:00;;;;;;;58.70;3.00;;;10.00;90.70;;;;;;5014107;28;20959;-70
2021/09/18 06:15:28;;;;;;;58.13;2.70;;;10.00;90.70;;;;;;5013664;28;20535;-70
2021/09/18 06:17:55;;;;;;;58.27;2.90;;;10.10;90.90;;;;;;5014099;28;20536;-70
2021/09/18 06:20:22;;;;;;;58.17;2.70;;;10.10;91.30;;;;;;5014235;28;20461;-70
2021/09/18 06:22:49;;;;;;;58.20;2.80;;;10.10;91.50;;;;;;5013835;28;20966;-70
2021/09/18 06:25:16;;;;;;;58.90;3.10;;;10.10;91.70;;;;;;5013759;28;20568;-70
2021/09/18 06:27:44;;;;;;;58.50;2.70;;;10.10;91.70;;;;;;5013415;28;20978;-70
2021/09/18 06:30:12;;;;;;;58.37;2.77;;;10.20;91.60;;;;;;5013507;28;20960;-70
2021/09/18 06:32:40;;;;;;;58.47;2.73;;;10.20;92.00;;;;;;5013687;28;20449;-70
2021/09/18 06:35:07;;;;;;;58.50;2.80;;;10.30;92.50;;;;;;5013747;28;20445;-70
2021/09/18 06:37:41;;;;;;;58.67;3.27;;;10.30;92.70;;;;;;5013318;28;20497;-70
2021/09/18 06:40:09;;;;;;;58.13;2.73;;;10.30;92.90;;;;;;5013586;28;20461;-70
2021/09/18 06:42:36;;;;;;;58.57;2.90;;;10.40;92.20;;;;;;5013682;28;20450;-70
2021/09/18 06:45:03;;;;;;;58.07;2.70;;;10.40;92.70;;;;;;5013413;28;20488;-70
2021/09/18 06:47:30;;;;;;;58.30;2.70;;;10.40;92.10;;;;;;5013095;28;20552;-70
2021/09/18 06:49:58;;;;;;;58.27;2.80;;;10.40;92.20;;;;;;5013463;28;20536;-70
2021/09/18 06:52:25;;;;;;;58.53;3.00;;;10.50;92.40;;;;;;5013485;28;20485;-70
2021/09/18 06:54:52;;;;;;;58.27;2.77;;;10.50;92.50;;;;;;5013760;28;20481;-70
2021/09/18 06:57:19;;;;;;;58.23;2.57;;;10.50;92.80;;;;;;5013083;28;20520;-70
2021/09/18 06:59:46;;;;;;;58.33;2.73;;;10.60;93.00;;;;;;5011850;28;20453;-70
2021/09/18 07:02:13;;;;;;;58.30;2.80;;;10.70;93.20;;;;;;5012169;28;20777;-70
2021/09/18 07:04:39;;;;;;;58.40;3.10;;;10.70;93.60;;;;;;5012234;28;20484;-70
2021/09/18 07:07:08;;;;;;;58.17;2.63;;;10.80;93.80;;;;;;5012381;28;20590;-70
2021/09/18 07:09:35;;;;;;;58.40;2.60;;;10.90;94.30;;;;;;5012683;28;20450;-70
2021/09/18 07:12:03;;;;;;;58.30;2.60;;;11.00;94.70;;;;;;5012730;28;20485;-70
2021/09/18 07:14:30;;;;;;;58.10;2.87;;;11.10;94.70;;;;;;5012922;28;20456;-70
2021/09/18 07:16:57;;;;;;;58.23;2.90;;;11.10;95.20;;;;;;5012731;28;20466;-70
2021/09/18 07:19:23;;;;;;;58.90;3.20;;;11.20;95.50;;;;;;5013170;28;20446;-71
2021/09/18 07:21:50;;;;;;;58.07;2.77;;;11.30;95.80;;;;;;5013382;28;20841;-71
2021/09/18 07:24:18;;;;;;;58.27;2.70;;;11.40;95.90;;;;;;5012931;28;20884;-71
2021/09/18 07:26:46;;;;;;;58.17;2.70;;;11.50;96.20;;;;;;5012672;28;20883;-71
2021/09/18 07:29:12;;;;;;;57.87;2.60;;;11.60;96.10;;;;;;5013001;28;20849;-71
2021/09/18 07:31:39;;;;;;;58.03;2.70;;;11.70;95.80;;;;;;5012850;28;20540;-71
2021/09/18 07:34:06;;;;;;;58.07;2.70;;;11.80;95.70;;;;;;5012915;28;20453;-71
2021/09/18 07:36:33;;;;;;;58.17;2.70;;;11.90;95.60;;;;;;5012635;28;20505;-71
2021/09/18 07:39:00;;;;;;;58.77;3.47;;;12.00;95.30;;;;;;5012802;28;20887;-70
2021/09/18 07:41:28;;;;;;;58.30;2.67;;;12.10;95.20;;;;;;5012133;28;20899;-70
2021/09/18 07:44:00;;;;;;;58.13;2.80;;;12.20;94.40;;;;;;5012652;28;20870;-71
2021/09/18 07:46:27;;;;;;;58.43;2.80;;;12.30;94.00;;;;;;5011756;28;20497;-70
2021/09/18 07:48:54;;;;;;;57.97;2.67;;;12.40;93.30;;;;;;5012770;28;20496;-71
2021/09/18 07:51:21;;;;;;;58.53;2.80;;;12.50;92.10;;;;;;5012457;28;20451;-71
2021/09/18 07:53:47;;;;;;;59.17;3.10;;;12.60;91.30;;;;;;5012316;28;20450;-71
2021/09/18 07:56:14;;;;;;;58.20;2.90;;;12.70;89.90;;;;;;5012298;28;20537;-71
2021/09/18 07:58:43;;;;;;;58.27;2.63;;;12.70;86.70;;;;;;5012391;28;20549;-71
2021/09/18 08:01:09;;;;;;;58.83;2.77;;;12.80;84.00;;;;;;5012099;28;20488;-71
2021/09/18 08:03:36;;;;;;;58.50;2.90;;;12.90;80.10;;;;;;5012523;28;20450;-71
2021/09/18 08:06:04;;;;;;;58.37;3.33;;;13.00;76.40;;;;;;5011832;28;20613;-71
2021/09/18 08:08:31;;;;;;;58.57;3.33;;;13.10;72.50;;;;;;5012398;28;20446;-71
2021/09/18 08:10:58;;;;;;;58.70;3.77;;;13.20;67.50;;;;;;5012245;28;20549;-71
2021/09/18 08:13:25;;;;;;;58.30;2.93;;;13.30;63.00;;;;;;5012138;28;20534;-71
2021/09/18 08:15:53;;;;;;;58.57;3.03;;;13.40;58.40;;;;;;5011675;28;20536;-71
2021/09/18 08:18:20;;;;;;;58.17;2.70;;;13.40;44.80;;;;;;5012224;28;20505;-71
2021/09/18 08:20:47;;;;;;;58.57;3.03;;;13.50;30.40;;;;;;5012064;28;20964;-71
2021/09/18 08:23:13;;;;;;;58.47;2.70;;;13.60;25.30;;;;;;5012213;28;20491;-71
2021/09/18 08:25:40;;;;;;;58.33;2.97;;;13.70;16.10;;;;;;5011715;28;21086;-71
2021/09/18 08:28:07;;;;;;;58.43;2.93;;;13.80;5.40;;;;;;5011820;28;20504;-71
2021/09/18 08:30:35;;;;;;;60.27;4.13;;;14.00;1.00;;;;;;5012154;28;20441;-71
2021/09/18 08:33:03;;;;;;;58.20;2.70;;;14.10;1.00;;;;;;5012129;28;20533;-71
2021/09/18 08:35:30;;;;;;;58.13;2.60;;;14.20;1.00;;;;;;5011637;28;21034;-71
2021/09/18 08:37:57;;;;;;;58.90;2.90;;;14.30;1.00;;;;;;5011680;28;20565;-69
2021/09/18 08:40:27;;;;;;;58.27;2.60;;;14.40;1.00;;;;;;5011926;28;20533;-69
2021/09/18 08:42:55;;;;;;;57.87;3.10;;;14.50;1.00;;;;;;5011773;28;20450;-71
2021/09/18 08:45:22;;;;;;;58.07;2.77;;;14.60;1.00;;;;;;5011652;28;20492;-71
2021/09/18 08:47:50;;;;;;;58.30;2.80;;;14.70;1.00;;;;;;5011731;28;20475;-69
2021/09/18 08:50:21;;;;;;;58.23;2.67;;;14.90;1.00;;;;;;5012002;28;20446;-69
2021/09/18 08:52:48;;;;;;;58.23;2.93;;;15.00;1.00;;;;;;5011914;28;20822;-70
2021/09/18 08:55:16;;;;;;;58.37;2.80;;;15.20;1.00;;;;;;5015023;28;20483;-70
2021/09/18 08:57:43;;;;;;;58.67;3.10;;;15.30;1.00;;;;;;5015425;28;20548;-71
2021/09/18 09:00:41;;;;;;;58.90;3.00;;;15.40;1.00;;;;;;5015666;28;20447;-69
2021/09/18 09:03:09;;;;;;;58.80;3.90;;;15.60;1.00;;;;;;5015633;28;20533;-69
2021/09/18 09:05:39;;;;;;;58.20;2.80;;;15.70;1.00;;;;;;5015093;28;20487;-70
2021/09/18 09:08:07;;;;;;;58.17;2.80;;;15.90;1.00;;;;;;5015467;28;20553;-70
2021/09/18 09:10:34;;;;;;;58.83;3.60;;;16.00;1.00;;;;;;5016134;28;20490;-70
2021/09/18 09:13:05;;;;;;;58.57;3.07;;;16.20;1.00;;;;;;5015482;28;21042;-70
2021/09/18 09:15:33;;;;;;;58.50;3.20;;;16.40;1.00;;;;;;5015009;28;21007;-70
2021/09/18 09:18:16;;;;;;;58.23;3.10;;;16.50;1.00;;;;;;5015515;28;20996;-70
2021/09/18 09:20:45;;;;;;;57.97;2.70;;;16.80;1.00;;;;;;5014488;28;20886;-70
2021/09/18 09:23:16;;;;;;;58.90;2.60;;;16.90;1.00;;;;;;5014751;28;20448;-70
2021/09/18 09:25:43;;;;;;;58.67;2.50;;;17.10;1.00;;;;;;5012483;28;20490;-68
2021/09/18 09:28:25;;;;;;;58.17;3.10;;;17.30;1.00;;;;;;5014192;28;20476;-68
2021/09/18 09:30:52;;;;;;;58.70;3.57;;;17.50;1.00;;;;;;5013546;28;20434;-68
2021/09/18 09:33:19;;;;;;;58.27;2.93;;;17.70;1.00;;;;;;5013059;28;20543;-68
2021/09/18 09:35:48;;;;;;;58.40;2.50;;;18.00;1.00;;;;;;5013052;28;21007;-68
2021/09/18 09:38:14;;;;;;;57.97;2.70;;;18.50;1.00;;;;;;5014065;28;20553;-68
2021/09/18 09:40:43;;;;;;;58.67;2.90;;;18.80;1.00;;;;;;5014409;28;20880;-68
2021/09/18 09:43:13;;;;;;;58.20;2.50;;;19.20;1.00;;;;;;5032754;28;20532;-68
2021/09/18 09:45:40;;;;;;;58.57;3.20;;;19.60;1.00;;;;;;5033938;28;20480;-67
2021/09/18 09:48:10;;;;;;;58.17;2.50;;;20.10;1.00;;;;;;5033054;28;20475;-68
2021/09/18 09:50:38;;;;;;;58.23;2.50;;;20.70;1.00;;;;;;5033568;28;20532;-68
2021/09/18 09:53:21;;;;;;;58.30;2.70;;;21.40;1.00;;;;;;5033464;28;20453;-68
2021/09/18 09:55:48;;;;;;;58.47;2.57;;;22.20;1.00;;;;;;5033327;28;20970;-68
2021/09/18 09:58:15;;;;;;;58.13;2.20;;;23.10;1.00;;;;;;5032948;28;21015;-68
2021/09/18 10:00:43;;;;;;;58.27;2.73;;;23.70;1.00;;;;;;5033451;28;21154;-68
2021/09/18 10:03:11;;;;;;;57.50;2.23;;;24.30;1.00;;;;;;5033509;28;20533;-68
2021/09/18 10:05:38;;;;;;;57.63;2.30;;;24.90;1.00;;;;;;5032337;28;20810;-68
2021/09/18 10:08:07;;;;;;;58.50;2.83;;;25.30;1.00;;;;;;5032507;28;20519;-69
2021/09/18 10:10:34;;;;;;;58.17;2.40;;;25.80;1.00;;;;;;5033589;28;20551;-69
2021/09/18 10:13:01;;;;;;;57.87;2.30;;;26.00;1.00;;;;;;5033308;28;20454;-69
2021/09/18 10:15:30;;;;;;;57.93;2.40;;;26.00;1.00;;;;;;5032403;28;20473;-69
2021/09/18 10:18:00;;;;;;;57.90;2.43;;;26.00;1.00;;;;;;5033318;28;20473;-68
2021/09/18 10:23:15;;;;;;;57.67;2.40;;;26.90;1.00;;;;;;4998568;28;20430;-68
2021/09/18 10:25:45;;;;;;;57.53;2.20;;;27.70;1.00;;;;;;5032516;28;20974;-69
2021/09/18 10:28:16;;;;;;;58.57;2.33;;;28.40;1.00;;;;;;5033431;28;20506;-69
2021/09/18 10:30:44;;;;;;;58.00;2.40;;;29.00;1.00;;;;;;5032700;28;20537;-69
2021/09/18 10:33:32;;;;;;;58.00;2.70;;;29.40;1.00;;;;;;5033329;28;20542;-69
2021/09/18 10:36:00;;;;;;;57.57;2.20;;;29.70;1.00;;;;;;5032912;28;20443;-68
2021/09/18 10:38:31;;;;;;;57.63;2.20;;;30.30;1.00;;;;;;5032828;28;21030;-69
2021/09/18 10:41:01;;;;;;;57.80;2.30;;;30.70;1.00;;;;;;5032991;28;20455;-69
2021/09/18 10:43:30;;;;;;;57.40;2.10;;;30.90;1.00;;;;;;5032607;28;20453;-69
2021/09/18 10:45:58;;;;;;;57.27;2.10;;;30.80;1.00;;;;;;5031619;28;20495;-69
2021/09/18 10:48:36;;;;;;;57.90;2.37;;;31.10;1.00;;;;;;5032081;28;20563;-69
2021/09/18 10:51:04;;;;;;;57.17;2.20;;;31.50;1.00;;;;;;5033051;28;20536;-69
2021/09/18 10:54:12;;;;;;;57.57;2.20;;;31.80;1.00;;;;;;5033204;28;20507;-69
2021/09/18 10:57:05;;;;;;;57.43;2.43;;;32.20;1.00;;;;;;5031292;28;20954;-69
2021/09/18 10:59:50;;;;;;;57.60;2.50;;;32.50;1.00;;;;;;5031319;28;20459;-69
2021/09/18 11:02:54;;;;;;;57.30;2.40;;;32.70;1.00;;;;;;5031245;28;20511;-69
2021/09/18 11:05:46;;;;;;;57.33;2.20;;;32.70;1.00;;;;;;5031969;28;20495;-69
2021/09/18 11:08:50;;;;;;;58.57;2.60;;;32.90;1.00;;;;;;5032508;28;20511;-69
2021/09/18 11:11:25;;;;;;;58.73;2.80;;;33.30;1.00;;;;;;5032714;28;20445;-70
2021/09/18 11:13:54;;;;;;;57.57;2.40;;;33.20;1.00;;;;;;5031600;28;21022;-69
2021/09/18 11:16:24;;;;;;;57.23;2.30;;;33.40;1.00;;;;;;5029306;28;20495;-69
2021/09/18 11:18:53;;;;;;;58.00;2.63;;;33.50;1.00;;;;;;5011993;28;20545;-69
2021/09/18 11:21:24;;;;;;;57.17;2.00;;;33.80;1.00;;;;;;5012084;28;20545;-69
2021/09/18 11:23:54;;;;;;;57.23;2.00;;;33.80;1.00;;;;;;5012203;28;20506;-69
2021/09/18 11:26:46;;;;;;;57.30;2.10;;;33.70;1.00;;;;;;5011738;28;20482;-69
2021/09/18 11:29:38;;;;;;;57.07;2.00;;;33.50;1.00;;;;;;5002613;28;20466;-69
2021/09/18 11:32:14;;;;;;;57.97;2.60;;;33.20;1.00;;;;;;5012536;28;20450;-69
2021/09/18 11:34:48;;;;;;;57.37;2.13;;;33.40;1.00;;;;;;5012851;28;20837;-69
2021/09/18 11:37:25;;;;;;;57.03;2.00;;;33.80;1.00;;;;;;5012467;28;20468;-69
2021/09/18 11:39:56;;;;;;;56.97;1.90;;;34.20;1.00;;;;;;5012136;28;20544;-69
2021/09/18 11:42:26;;;;;;;57.07;2.43;;;34.50;1.00;;;;;;5012097;28;20508;-69
2021/09/18 11:44:56;;;;;;;57.10;2.10;;;34.80;1.00;;;;;;5011941;28;20541;-69
2021/09/18 11:47:25;;;;;;;56.90;2.10;;;35.00;1.00;;;;;;5011797;28;20473;-69
2021/09/18 11:49:53;;;;;;;57.10;2.43;;;35.20;1.00;;;;;;5010579;28;20461;-69
2021/09/18 11:52:19;;;;;;;56.97;2.10;;;35.40;1.00;;;;;;5012402;28;20478;-69
2021/09/18 11:54:46;;;;;;;56.87;2.10;;;35.80;1.00;;;;;;5012345;28;20541;-69
2021/09/18 11:57:19;;;;;;;57.10;2.30;;;35.80;1.00;;;;;;5012114;28;20573;-69
2021/09/18 11:59:47;;;;;;;57.27;2.23;;;35.90;1.00;;;;;;5012221;28;20430;-67
2021/09/18 12:02:13;;;;;;;57.60;2.67;;;36.00;1.00;;;;;;5011929;28;20450;-68
2021/09/18 12:04:42;;;;;;;57.40;2.80;;;36.20;1.00;;;;;;5011595;28;20533;-68
2021/09/18 12:07:11;;;;;;;56.97;2.00;;;36.30;1.00;;;;;;5011246;28;20558;-69
2021/09/18 12:09:38;;;;;;;57.10;2.23;;;36.40;1.00;;;;;;5012311;28;20454;-68
2021/09/18 12:12:05;;;;;;;57.20;2.47;;;36.20;1.00;;;;;;5012301;28;20482;-68
2021/09/18 12:14:34;;;;;;;57.10;2.20;;;36.00;1.00;;;;;;5012261;28;20446;-68
2021/09/18 12:17:12;;;;;;;56.57;1.90;;;35.90;1.00;;;;;;5011724;28;20536;-68
2021/09/18 12:19:40;;;;;;;56.80;2.33;;;36.20;1.00;;;;;;5011721;28;20430;-68
2021/09/18 12:22:08;;;;;;;57.07;2.20;;;36.40;1.00;;;;;;5011894;28;20830;-68
2021/09/18 12:24:37;;;;;;;56.90;2.10;;;36.50;1.00;;;;;;5011604;28;20570;-68
2021/09/18 12:27:23;;;;;;;57.00;2.60;;;36.80;1.00;;;;;;5010944;28;20477;-68
2021/09/18 12:30:00;;;;;;;56.83;2.20;;;37.10;1.00;;;;;;5015772;28;20480;-69
2021/09/18 12:32:28;;;;;;;57.37;2.77;;;37.40;1.00;;;;;;5016084;28;20446;-69
2021/09/18 12:35:07;;;;;;;57.53;2.50;;;37.60;1.00;;;;;;5014514;28;20536;-69
2021/09/18 12:37:36;;;;;;;56.80;2.10;;;37.50;1.00;;;;;;5015452;28;20598;-69
2021/09/18 12:40:11;;;;;;;56.80;2.20;;;37.70;1.00;;;;;;5015275;28;20450;-69
2021/09/18 12:42:38;;;;;;;56.73;2.10;;;37.80;1.00;;;;;;5015695;28;20445;-69
2021/09/18 12:45:22;;;;;;;57.00;2.50;;;37.80;1.00;;;;;;5015238;28;20540;-68
2021/09/18 12:47:50;;;;;;;57.80;3.10;;;37.80;1.00;;;;;;5015024;28;20462;-69
2021/09/18 12:50:18;;;;;;;57.20;2.43;;;37.80;1.00;;;;;;5015717;28;20467;-69
2021/09/18 12:52:44;;;;;;;57.10;2.10;;;37.50;1.00;;;;;;5015475;28;20545;-69